DK-0007 weather

Ejstruphede Glider Field
Ejstruphede, Central Jutland, Denmark

Public forecast

Using degrees Celsius for public forecast. Weather courtesy of forecast.io.

Closest aviation weather report (METAR) to Ejstruphede Glider Field

Report is more than 6 hours old.

Closest report is Stauning Airport, 11.5 nm (21.3 km) W. Retrieved 2019/10/19 12:50 UTC (16 hours ago):

EKVJ 191250Z 19016KT 9999 SCT013 FEW015CB 13/12 Q1001

Closest aviation forecast (TAF) to Ejstruphede Glider Field

Closest forecast is Karup Airport, 22.0 nm (40.8 km) NE. Retrieved 2019-10-20 03:31 UTC (1 hour ago):

TAF EKKA 200214Z 2003/2103 18005KT 9999 SCT020 SCT050 TEMPO 2003/2008 2000 -SHRA BR BKN003 SCT020CB TEMPO 2008/2015 7000 -SHRA BKN012 SCT020CB BECMG 2011/2014 22006KT BECMG 2017/2019 VRB03KT 4000 BR TEMPO 2019/2021 0300 BCFG BECMG 2021/2023 0100 FG BKN001 TEMPO 2023/2103 0800 BKN002